createdAt,value
2023-03-27T00:02:03.306Z,75.47
2023-03-27T00:04:29.924Z,75.82
2023-03-27T00:06:56.281Z,76.26
2023-03-27T00:09:22.615Z,76.48
2023-03-27T00:11:49.028Z,76.29
2023-03-27T00:14:16.084Z,76.77
2023-03-27T00:16:42.704Z,77.01
2023-03-27T00:19:09.702Z,76.98
2023-03-27T00:21:36.102Z,77.29
2023-03-27T00:24:02.490Z,76.87
2023-03-27T00:26:30.453Z,77.20
2023-03-27T00:28:57.051Z,76.97
2023-03-27T00:31:23.618Z,77.29
2023-03-27T00:33:50.018Z,77.52
2023-03-27T00:36:16.439Z,77.45
2023-03-27T00:38:43.747Z,77.85
2023-03-27T00:41:10.262Z,77.52
2023-03-27T00:43:42.665Z,77.56
2023-03-27T00:46:15.435Z,77.75
2023-03-27T00:48:43.367Z,77.78
2023-03-27T00:51:09.773Z,77.79
2023-03-27T00:53:37.088Z,77.63
2023-03-27T00:56:07.956Z,77.66
2023-03-27T00:58:38.634Z,78.23
2023-03-27T01:01:05.413Z,78.30
2023-03-27T01:03:33.091Z,78.60
2023-03-27T01:06:02.909Z,78.58
2023-03-27T01:08:33.545Z,78.42
2023-03-27T01:11:14.036Z,78.73
2023-03-27T01:14:05.122Z,78.75
2023-03-27T01:16:50.320Z,78.79
2023-03-27T01:19:29.082Z,78.85
2023-03-27T01:22:14.716Z,79.34
2023-03-27T01:25:15.761Z,79.24
2023-03-27T01:28:16.179Z,79.64
2023-03-27T01:31:18.019Z,79.49
2023-03-27T01:33:56.610Z,80.06
2023-03-27T01:36:55.613Z,80.53
2023-03-27T01:39:39.086Z,80.23
2023-03-27T01:42:15.816Z,80.67
2023-03-27T01:45:08.301Z,80.60
2023-03-27T01:48:07.078Z,80.93
2023-03-27T01:50:36.781Z,81.01
2023-03-27T01:53:10.532Z,81.21
2023-03-27T01:55:41.552Z,81.28
2023-03-27T01:58:14.092Z,81.39
2023-03-27T02:00:52.165Z,81.26
2023-03-27T02:03:29.183Z,81.75
2023-03-27T02:06:02.133Z,81.64
2023-03-27T02:08:50.698Z,81.72
2023-03-27T02:11:17.535Z,81.79
2023-03-27T02:13:49.949Z,81.96
2023-03-27T02:16:20.950Z,82.05
2023-03-27T02:18:59.231Z,82.48
2023-03-27T02:21:25.767Z,82.71
2023-03-27T02:23:53.040Z,82.70
2023-03-27T02:26:19.535Z,82.89
2023-03-27T02:28:57.200Z,83.01
2023-03-27T02:31:48.312Z,82.87
2023-03-27T02:34:27.344Z,83.08
2023-03-27T02:37:02.385Z,83.02
2023-03-27T02:39:38.108Z,83.29
2023-03-27T02:42:28.702Z,83.44
2023-03-27T02:45:03.479Z,83.53
2023-03-27T02:47:42.765Z,83.35
2023-03-27T02:50:16.741Z,83.39
2023-03-27T02:52:48.072Z,83.58
2023-03-27T02:55:19.063Z,83.63
2023-03-27T02:57:51.944Z,83.67
2023-03-27T03:00:25.945Z,83.70
2023-03-27T03:03:00.389Z,84.09
2023-03-27T03:05:27.112Z,83.80
2023-03-27T03:07:54.343Z,83.74
2023-03-27T03:10:21.291Z,83.78
2023-03-27T03:12:47.757Z,83.95
2023-03-27T03:15:14.630Z,83.80
2023-03-27T03:17:41.823Z,83.94
2023-03-27T03:20:09.898Z,83.99
2023-03-27T03:22:39.856Z,84.51
2023-03-27T03:25:07.663Z,84.45
2023-03-27T03:27:34.228Z,84.45
2023-03-27T03:30:00.817Z,84.50
2023-03-27T03:32:27.462Z,84.57
2023-03-27T03:34:53.957Z,84.45
2023-03-27T03:37:20.697Z,84.60
2023-03-27T03:39:47.035Z,84.84
2023-03-27T03:42:22.210Z,84.84
2023-03-27T03:44:49.539Z,85.08
2023-03-27T03:47:16.230Z,85.24
2023-03-27T03:49:42.619Z,85.16
2023-03-27T03:52:09.074Z,84.85
2023-03-27T03:54:38.549Z,85.07
2023-03-27T03:57:05.069Z,85.04
2023-03-27T03:59:31.703Z,85.15
2023-03-27T04:01:58.154Z,85.45
2023-03-27T04:04:24.578Z,85.50
2023-03-27T04:06:50.974Z,85.63
2023-03-27T04:09:17.345Z,85.80
2023-03-27T04:11:43.707Z,85.57
2023-03-27T04:14:10.353Z,85.22
2023-03-27T04:16:36.872Z,85.63
2023-03-27T04:19:03.257Z,85.46
2023-03-27T04:21:29.685Z,85.32
2023-03-27T04:24:02.182Z,85.77
2023-03-27T04:26:29.591Z,85.89
2023-03-27T04:28:56.024Z,85.46
2023-03-27T04:31:22.453Z,85.75
2023-03-27T04:33:51.925Z,86.05
2023-03-27T04:36:18.998Z,85.93
2023-03-27T04:38:45.686Z,86.17
2023-03-27T04:41:12.017Z,86.11
2023-03-27T04:43:40.170Z,86.02
2023-03-27T04:46:07.990Z,86.39
2023-03-27T04:48:37.622Z,86.41
2023-03-27T04:51:05.612Z,86.63
2023-03-27T04:53:32.379Z,86.37
2023-03-27T04:55:58.728Z,86.65
2023-03-27T04:58:28.312Z,87.07
2023-03-27T05:00:56.450Z,87.06
2023-03-27T05:03:27.867Z,87.23
2023-03-27T05:05:54.323Z,87.05
2023-03-27T05:08:20.935Z,86.99
2023-03-27T05:10:47.594Z,87.02
2023-03-27T05:13:14.039Z,87.10
2023-03-27T05:15:40.470Z,87.42
2023-03-27T05:18:07.690Z,87.72
2023-03-27T05:20:34.610Z,88.07
2023-03-27T05:23:01.002Z,88.19
2023-03-27T05:25:28.564Z,87.91
2023-03-27T05:27:55.012Z,87.77
2023-03-27T05:30:23.926Z,88.15
2023-03-27T05:32:54.347Z,88.28
2023-03-27T05:35:23.734Z,88.54
2023-03-27T05:37:52.993Z,88.17
2023-03-27T05:40:22.616Z,88.36
2023-03-27T05:42:50.300Z,88.29
2023-03-27T05:45:17.809Z,88.29
2023-03-27T05:47:55.524Z,88.17
2023-03-27T05:50:25.483Z,88.22
2023-03-27T05:53:00.560Z,88.50
2023-03-27T05:55:28.025Z,88.53
2023-03-27T05:57:54.908Z,88.40
2023-03-27T06:00:25.664Z,88.30
2023-03-27T06:02:56.948Z,88.48
2023-03-27T06:05:24.586Z,88.25
2023-03-27T06:07:51.958Z,88.23
2023-03-27T06:10:20.492Z,88.39
2023-03-27T06:12:48.976Z,88.29
2023-03-27T06:15:15.776Z,88.30
2023-03-27T06:17:43.626Z,88.18
2023-03-27T06:20:12.868Z,88.03
2023-03-27T06:22:49.940Z,87.72
2023-03-27T06:25:17.136Z,87.96
2023-03-27T06:27:47.864Z,88.05
2023-03-27T06:30:20.798Z,88.00
2023-03-27T06:32:52.807Z,87.94
2023-03-27T06:35:20.370Z,87.82
2023-03-27T06:37:51.279Z,87.60
2023-03-27T06:40:22.807Z,87.65
2023-03-27T06:43:00.766Z,87.69
2023-03-27T06:45:30.264Z,88.07
2023-03-27T06:48:16.955Z,87.90
2023-03-27T06:50:46.954Z,87.87
2023-03-27T06:55:48.021Z,87.73
2023-03-27T06:58:14.717Z,87.68
2023-03-27T07:00:41.502Z,87.54
2023-03-27T07:03:10.801Z,87.62
2023-03-27T07:05:40.492Z,87.54
2023-03-27T07:08:21.832Z,87.54
2023-03-27T07:10:59.974Z,87.39
2023-03-27T07:13:34.929Z,87.45
2023-03-27T07:16:01.413Z,86.88
2023-03-27T07:18:27.838Z,86.96
2023-03-27T07:20:54.466Z,86.76
2023-03-27T07:23:21.317Z,85.85
2023-03-27T07:25:49.878Z,86.32
2023-03-27T07:28:18.220Z,86.08
2023-03-27T07:30:44.695Z,86.09
2023-03-27T07:33:12.393Z,85.93
2023-03-27T07:35:46.741Z,85.47
2023-03-27T07:38:14.153Z,85.65
2023-03-27T07:40:43.171Z,85.41
2023-03-27T07:43:09.733Z,85.37
2023-03-27T07:45:36.559Z,85.41
2023-03-27T07:48:12.259Z,85.40
2023-03-27T07:50:38.860Z,84.90
2023-03-27T07:53:06.335Z,84.36
2023-03-27T07:55:32.970Z,84.28
2023-03-27T07:58:02.952Z,83.23
2023-03-27T08:00:31.281Z,81.98
2023-03-27T08:03:10.020Z,80.46
2023-03-27T08:05:37.043Z,78.85
2023-03-27T08:08:03.912Z,78.65
2023-03-27T08:10:30.697Z,77.62
2023-03-27T08:12:57.232Z,77.24
2023-03-27T08:15:25.043Z,77.33
2023-03-27T08:17:54.468Z,76.64
2023-03-27T08:20:22.739Z,75.47
2023-03-27T08:22:53.312Z,74.96
2023-03-27T08:25:22.688Z,74.41
2023-03-27T08:27:49.923Z,74.03
2023-03-27T08:30:17.331Z,73.12
2023-03-27T08:32:44.419Z,72.90
2023-03-27T08:35:12.078Z,72.37
2023-03-27T08:37:38.540Z,72.25
2023-03-27T08:40:13.928Z,72.18
2023-03-27T08:42:44.067Z,71.22
2023-03-27T08:45:20.655Z,70.94
2023-03-27T08:47:59.929Z,70.59
2023-03-27T08:50:34.490Z,70.48
2023-03-27T08:53:03.349Z,70.66
2023-03-27T08:55:41.668Z,70.58
2023-03-27T08:58:21.663Z,69.50
2023-03-27T09:01:04.406Z,68.89
2023-03-27T09:03:44.165Z,68.50
2023-03-27T09:06:38.268Z,67.82
2023-03-27T09:09:42.916Z,68.22
2023-03-27T09:12:28.754Z,66.58
2023-03-27T09:15:05.739Z,66.55
2023-03-27T09:17:38.247Z,67.02
2023-03-27T09:20:18.455Z,66.59
2023-03-27T09:22:52.533Z,66.03
2023-03-27T09:25:32.535Z,66.26
2023-03-27T09:28:01.291Z,65.65
2023-03-27T09:30:30.439Z,64.89
2023-03-27T09:33:01.778Z,64.84
2023-03-27T09:35:28.212Z,65.34
2023-03-27T09:38:22.008Z,65.43
2023-03-27T09:41:00.598Z,63.94
2023-03-27T09:43:37.442Z,64.38
2023-03-27T09:46:04.556Z,63.69
2023-03-27T09:48:45.207Z,62.52
2023-03-27T09:51:35.721Z,61.97
2023-03-27T09:54:02.320Z,62.49
2023-03-27T09:56:29.395Z,62.41
2023-03-27T09:58:57.193Z,61.51
2023-03-27T10:01:34.575Z,60.68
2023-03-27T10:04:01.751Z,60.29
2023-03-27T10:06:31.465Z,59.22
2023-03-27T10:09:02.404Z,58.52
2023-03-27T10:11:32.623Z,57.91
2023-03-27T10:14:01.414Z,57.99
2023-03-27T10:16:29.242Z,56.81
2023-03-27T10:18:58.599Z,56.32
2023-03-27T10:21:27.405Z,56.80
2023-03-27T10:24:02.122Z,56.11
2023-03-27T10:26:31.395Z,57.38
2023-03-27T10:29:05.102Z,58.69
2023-03-27T10:31:37.867Z,60.45
2023-03-27T10:34:06.818Z,62.24
2023-03-27T10:36:38.322Z,62.30
2023-03-27T10:39:13.665Z,61.74
2023-03-27T10:41:40.708Z,61.73
2023-03-27T10:44:20.188Z,61.42
2023-03-27T10:46:47.168Z,61.58
2023-03-27T10:49:37.144Z,61.21
2023-03-27T10:52:20.783Z,61.49
2023-03-27T10:55:34.810Z,62.96
2023-03-27T10:58:06.352Z,64.06
2023-03-27T11:00:38.746Z,64.53
2023-03-27T11:03:14.836Z,65.29
2023-03-27T11:05:47.139Z,66.00
2023-03-27T11:08:27.432Z,65.47
2023-03-27T11:11:00.579Z,65.45
2023-03-27T11:13:33.394Z,66.32
2023-03-27T11:16:09.093Z,65.89
2023-03-27T11:18:48.943Z,66.42
2023-03-27T11:21:22.144Z,65.89
2023-03-27T11:23:59.903Z,62.33
2023-03-27T11:26:33.820Z,60.85
2023-03-27T11:29:16.840Z,60.36
2023-03-27T11:31:48.326Z,59.58
2023-03-27T11:34:29.804Z,59.28
2023-03-27T11:36:59.639Z,58.86
2023-03-27T11:39:40.898Z,58.80
2023-03-27T11:42:18.911Z,60.35
2023-03-27T11:44:45.570Z,63.44
2023-03-27T11:47:33.212Z,66.17
2023-03-27T11:49:59.638Z,68.28
2023-03-27T11:52:55.473Z,69.62
2023-03-27T11:55:34.178Z,70.64
2023-03-27T11:58:26.608Z,71.53
2023-03-27T12:01:23.299Z,73.00
2023-03-27T12:04:03.027Z,73.20
2023-03-27T12:07:15.394Z,74.32
2023-03-27T12:10:18.884Z,74.09
2023-03-27T12:13:00.136Z,74.40
2023-03-27T12:15:43.371Z,75.52
2023-03-27T12:18:15.885Z,75.92
2023-03-27T12:20:53.676Z,76.20
2023-03-27T12:24:04.484Z,76.31
2023-03-27T12:27:09.439Z,76.52
2023-03-27T12:29:42.284Z,76.38
2023-03-27T12:32:39.855Z,76.41
2023-03-27T12:35:21.410Z,76.77
2023-03-27T12:38:10.939Z,75.48
2023-03-27T12:40:37.264Z,74.49
2023-03-27T12:43:21.768Z,73.35
2023-03-27T12:46:09.653Z,71.64
2023-03-27T12:48:54.304Z,70.18
2023-03-27T12:51:37.833Z,67.84
2023-03-27T12:54:32.561Z,65.76
2023-03-27T12:57:05.913Z,64.13
2023-03-27T12:59:54.883Z,62.29
2023-03-27T13:02:58.567Z,61.92
2023-03-27T13:05:49.759Z,60.06
2023-03-27T13:08:22.737Z,59.78
2023-03-27T13:10:57.829Z,58.26
2023-03-27T13:14:02.622Z,58.26
2023-03-27T13:16:39.011Z,57.59
2023-03-27T13:19:21.002Z,56.88
2023-03-27T13:22:08.731Z,55.80
2023-03-27T13:24:54.368Z,56.02
2023-03-27T13:27:27.272Z,59.06
2023-03-27T13:29:53.808Z,61.79
2023-03-27T13:32:32.874Z,64.32
2023-03-27T13:35:11.515Z,66.60
2023-03-27T13:37:48.172Z,68.25
2023-03-27T13:40:36.688Z,70.73
2023-03-27T13:43:12.336Z,72.81
2023-03-27T13:45:49.674Z,74.16
2023-03-27T13:48:34.464Z,75.65
2023-03-27T13:51:16.066Z,76.82
2023-03-27T13:54:01.469Z,76.78
2023-03-27T13:56:51.952Z,78.06
2023-03-27T13:59:40.161Z,78.50
2023-03-27T14:02:27.040Z,78.13
2023-03-27T14:05:31.500Z,76.94
2023-03-27T14:08:14.566Z,73.23
2023-03-27T14:10:50.318Z,71.67
2023-03-27T14:13:41.420Z,70.46
2023-03-27T14:16:15.939Z,67.12
2023-03-27T14:19:09.205Z,65.92
2023-03-27T14:22:03.402Z,64.19
2023-03-27T14:24:48.945Z,62.24
2023-03-27T14:27:19.782Z,61.18
2023-03-27T14:29:49.354Z,61.41
2023-03-27T14:32:20.370Z,61.24
2023-03-27T14:35:04.466Z,61.15
2023-03-27T14:37:38.858Z,59.59
2023-03-27T14:40:20.308Z,61.29
2023-03-27T14:42:49.577Z,63.68
2023-03-27T14:45:21.742Z,66.19
2023-03-27T14:47:51.863Z,68.02
2023-03-27T14:50:18.428Z,67.20
2023-03-27T14:52:44.921Z,66.34
2023-03-27T14:55:18.586Z,67.09
2023-03-27T14:57:48.377Z,65.76
2023-03-27T15:00:21.294Z,64.38
2023-03-27T15:02:52.071Z,63.92
2023-03-27T15:05:22.443Z,62.17
2023-03-27T15:07:49.540Z,61.44
2023-03-27T15:10:24.239Z,59.92
2023-03-27T15:12:51.138Z,58.79
2023-03-27T15:15:27.105Z,58.06
2023-03-27T15:17:54.817Z,57.19
2023-03-27T15:20:25.134Z,55.97
2023-03-27T15:23:00.763Z,56.26
2023-03-27T15:25:49.678Z,55.68
2023-03-27T15:28:32.763Z,56.08
2023-03-27T15:31:03.230Z,56.51
2023-03-27T15:33:41.007Z,56.75
2023-03-27T15:36:26.236Z,56.19
2023-03-27T15:39:00.576Z,57.00
2023-03-27T15:41:32.777Z,58.36
2023-03-27T15:44:05.527Z,59.30
2023-03-27T15:46:46.342Z,59.62
2023-03-27T15:49:29.229Z,59.81
2023-03-27T15:51:57.185Z,59.61
2023-03-27T15:54:35.389Z,59.24
2023-03-27T15:57:10.169Z,59.19
2023-03-27T15:59:51.927Z,59.09
2023-03-27T16:02:21.583Z,59.43
2023-03-27T16:04:57.119Z,59.55
2023-03-27T16:07:32.534Z,60.17
2023-03-27T16:10:06.781Z,60.51
2023-03-27T16:12:54.818Z,61.30
2023-03-27T16:15:41.037Z,62.03
2023-03-27T16:18:19.816Z,64.53
2023-03-27T16:20:46.214Z,67.09
2023-03-27T16:23:12.530Z,68.16
2023-03-27T16:25:40.468Z,70.46
2023-03-27T16:28:10.988Z,72.22
2023-03-27T16:30:41.397Z,72.99
2023-03-27T16:33:15.803Z,74.17
2023-03-27T16:35:43.178Z,73.68
2023-03-27T16:38:09.764Z,74.00
2023-03-27T16:40:36.389Z,74.24
2023-03-27T16:43:02.842Z,74.01
2023-03-27T16:45:29.628Z,73.95
2023-03-27T16:47:56.323Z,72.65
2023-03-27T16:50:26.555Z,72.34
2023-03-27T16:52:52.888Z,71.92
2023-03-27T16:55:19.423Z,70.91
2023-03-27T16:57:48.818Z,70.15
2023-03-27T17:00:16.564Z,69.44
2023-03-27T17:02:44.225Z,68.50
2023-03-27T17:05:10.825Z,67.58
2023-03-27T17:07:37.260Z,66.85
2023-03-27T17:10:04.161Z,66.35
2023-03-27T17:12:30.610Z,66.29
2023-03-27T17:14:57.047Z,67.21
2023-03-27T17:17:23.738Z,67.60
2023-03-27T17:19:50.371Z,67.86
2023-03-27T17:22:16.818Z,68.39
2023-03-27T17:24:55.467Z,68.40
2023-03-27T17:27:23.945Z,68.75
2023-03-27T17:29:51.168Z,69.11
2023-03-27T17:32:17.538Z,68.44
2023-03-27T17:34:43.949Z,69.09
2023-03-27T17:37:12.387Z,68.83
2023-03-27T17:39:39.003Z,68.45
2023-03-27T17:42:05.651Z,68.45
2023-03-27T17:44:32.025Z,68.40
2023-03-27T17:46:58.579Z,68.86
2023-03-27T17:49:24.915Z,69.15
2023-03-27T17:51:51.763Z,68.50
2023-03-27T17:54:18.453Z,68.79
2023-03-27T17:56:44.889Z,68.81
2023-03-27T17:59:11.398Z,68.56
2023-03-27T18:01:37.838Z,68.64
2023-03-27T18:04:04.438Z,68.72
2023-03-27T18:06:31.001Z,68.61
2023-03-27T18:08:58.074Z,68.30
2023-03-27T18:11:24.597Z,68.41
2023-03-27T18:13:53.108Z,69.10
2023-03-27T18:16:21.566Z,68.77
2023-03-27T18:18:48.211Z,68.94
2023-03-27T18:21:16.195Z,69.01
2023-03-27T18:23:45.808Z,69.26
2023-03-27T18:26:13.758Z,68.50
2023-03-27T18:28:40.137Z,68.63
2023-03-27T18:31:08.935Z,68.69
2023-03-27T18:33:35.902Z,68.83
2023-03-27T18:36:04.003Z,69.01
2023-03-27T18:38:30.466Z,69.85
2023-03-27T18:40:57.704Z,70.58
2023-03-27T18:43:24.358Z,71.61
2023-03-27T18:45:58.931Z,72.09
2023-03-27T18:48:26.473Z,72.04
2023-03-27T18:50:57.880Z,72.68
2023-03-27T18:53:25.078Z,72.98
2023-03-27T18:55:52.503Z,73.30
2023-03-27T18:58:20.758Z,73.54
2023-03-27T19:00:47.398Z,73.60
2023-03-27T19:03:20.202Z,73.88
2023-03-27T19:05:47.792Z,73.92
2023-03-27T19:08:14.841Z,73.79
2023-03-27T19:10:41.310Z,73.97
2023-03-27T19:13:07.858Z,74.25
2023-03-27T19:15:34.394Z,74.48
2023-03-27T19:18:01.512Z,74.79
2023-03-27T19:20:28.478Z,74.74
2023-03-27T19:22:54.839Z,74.58
2023-03-27T19:25:21.203Z,74.58
2023-03-27T19:27:47.559Z,74.28
2023-03-27T19:30:14.598Z,74.67
2023-03-27T19:32:41.327Z,74.34
2023-03-27T19:35:08.965Z,74.21
2023-03-27T19:37:35.572Z,74.09
2023-03-27T19:40:01.944Z,73.93
2023-03-27T19:42:29.410Z,73.54
2023-03-27T19:44:56.023Z,73.29
2023-03-27T19:47:22.448Z,73.33
2023-03-27T19:49:48.935Z,73.59
2023-03-27T19:52:19.733Z,73.74
2023-03-27T19:54:46.497Z,73.45
2023-03-27T19:57:13.017Z,73.69
2023-03-27T19:59:39.475Z,73.39
2023-03-27T20:02:06.760Z,73.39
2023-03-27T20:04:33.399Z,73.43
2023-03-27T20:07:01.691Z,72.98
2023-03-27T20:09:28.215Z,73.35
2023-03-27T20:11:54.872Z,72.79
2023-03-27T20:14:21.242Z,73.12
2023-03-27T20:16:48.217Z,72.92
2023-03-27T20:19:16.623Z,73.28
2023-03-27T20:21:43.599Z,73.35
2023-03-27T20:24:12.769Z,73.39
2023-03-27T20:26:41.239Z,73.46
2023-03-27T20:29:10.629Z,73.36
2023-03-27T20:31:38.121Z,73.61
2023-03-27T20:34:06.338Z,73.44
2023-03-27T20:36:34.778Z,73.87
2023-03-27T20:39:04.675Z,73.90
2023-03-27T20:41:38.877Z,74.20
2023-03-27T20:44:15.480Z,74.08
2023-03-27T20:46:47.377Z,74.17
2023-03-27T20:49:37.547Z,73.96
2023-03-27T20:52:07.860Z,74.41
2023-03-27T20:54:34.677Z,74.33
2023-03-27T20:57:02.376Z,74.26
2023-03-27T20:59:29.892Z,74.42
2023-03-27T21:01:57.006Z,74.69
2023-03-27T21:04:25.790Z,74.92
2023-03-27T21:06:54.826Z,75.05
2023-03-27T21:09:22.704Z,74.78
2023-03-27T21:11:49.234Z,74.98
2023-03-27T21:14:16.025Z,74.70
2023-03-27T21:16:42.738Z,74.99
2023-03-27T21:19:10.601Z,74.86
2023-03-27T21:21:37.267Z,75.09
2023-03-27T21:24:03.782Z,75.36
2023-03-27T21:26:30.387Z,75.50
2023-03-27T21:28:56.718Z,75.60
2023-03-27T21:31:23.200Z,75.59
2023-03-27T21:33:49.545Z,75.58
2023-03-27T21:36:16.362Z,75.91
2023-03-27T21:38:42.836Z,76.08
2023-03-27T21:41:12.948Z,75.84
2023-03-27T21:43:39.271Z,75.79
2023-03-27T21:46:06.356Z,75.82
2023-03-27T21:48:32.813Z,75.93
2023-03-27T21:51:04.912Z,76.14
2023-03-27T21:53:31.367Z,76.30
2023-03-27T21:55:58.318Z,76.42
2023-03-27T21:58:25.721Z,76.21
2023-03-27T22:00:54.723Z,76.73
2023-03-27T22:03:21.093Z,76.65
2023-03-27T22:05:57.383Z,76.68
2023-03-27T22:08:33.997Z,76.82
2023-03-27T22:11:01.761Z,77.10
2023-03-27T22:13:28.132Z,77.41
2023-03-27T22:15:54.749Z,77.37
2023-03-27T22:18:21.323Z,77.59
2023-03-27T22:20:47.771Z,77.72
2023-03-27T22:23:14.086Z,78.26
2023-03-27T22:25:40.394Z,78.37
2023-03-27T22:28:06.790Z,78.64
2023-03-27T22:30:33.173Z,78.97
2023-03-27T22:32:59.602Z,79.23
2023-03-27T22:35:26.290Z,79.23
2023-03-27T22:37:52.620Z,79.42
2023-03-27T22:40:19.056Z,79.94
2023-03-27T22:42:45.566Z,79.93
2023-03-27T22:45:12.099Z,80.33
2023-03-27T22:47:38.445Z,80.65
2023-03-27T22:50:06.347Z,80.54
2023-03-27T22:52:32.997Z,80.41
2023-03-27T22:54:59.472Z,80.61
2023-03-27T22:57:25.944Z,80.32
2023-03-27T22:59:52.480Z,80.64
2023-03-27T23:02:18.939Z,80.66
2023-03-27T23:04:45.388Z,80.39
2023-03-27T23:07:12.124Z,80.67
2023-03-27T23:09:38.536Z,80.36
2023-03-27T23:12:05.276Z,80.57
2023-03-27T23:14:31.808Z,80.95
2023-03-27T23:16:58.185Z,81.31
2023-03-27T23:19:24.753Z,81.13
2023-03-27T23:21:51.114Z,80.89
2023-03-27T23:24:17.466Z,81.32
2023-03-27T23:26:43.923Z,81.23
2023-03-27T23:29:10.290Z,81.43
2023-03-27T23:31:36.669Z,81.40
2023-03-27T23:34:03.081Z,81.58
2023-03-27T23:36:29.722Z,81.58
2023-03-27T23:38:56.413Z,82.07
2023-03-27T23:41:22.916Z,81.89
2023-03-27T23:43:49.538Z,82.36
2023-03-27T23:46:16.745Z,82.27
2023-03-27T23:48:44.459Z,82.33
2023-03-27T23:51:12.820Z,82.27
2023-03-27T23:53:39.376Z,82.51
2023-03-27T23:56:06.246Z,82.61
2023-03-27T23:58:32.985Z,82.54
